sensor_id;sensor_type;location;lat;lon;timestamp;P1;durP1;ratioP1;P2;durP2;ratioP2
48777;SDS011;34578;0.000;0.000;2022-09-09T00:00:24;1.40;;;0.60;;
48777;SDS011;34578;0.000;0.000;2022-09-09T00:05:28;2.08;;;0.73;;
48777;SDS011;34578;0.000;0.000;2022-09-09T00:10:43;1.42;;;0.50;;
48777;SDS011;34578;0.000;0.000;2022-09-09T00:21:06;3.30;;;1.02;;
48777;SDS011;34578;0.000;0.000;2022-09-09T00:26:16;3.50;;;0.47;;
48777;SDS011;34578;0.000;0.000;2022-09-09T00:31:38;3.33;;;1.27;;
48777;SDS011;34578;0.000;0.000;2022-09-09T00:36:39;2.00;;;0.73;;
48777;SDS011;34578;0.000;0.000;2022-09-09T00:41:47;1.45;;;0.60;;
48777;SDS011;34578;0.000;0.000;2022-09-09T00:57:39;4.90;;;1.10;;
48777;SDS011;34578;0.000;0.000;2022-09-09T01:07:51;1.67;;;0.80;;
48777;SDS011;34578;0.000;0.000;2022-09-09T01:12:51;3.27;;;0.97;;
48777;SDS011;34578;0.000;0.000;2022-09-09T01:17:58;6.20;;;0.60;;
48777;SDS011;34578;0.000;0.000;2022-09-09T01:28:50;1.83;;;0.43;;
48777;SDS011;34578;0.000;0.000;2022-09-09T01:34:04;1.20;;;0.73;;
48777;SDS011;34578;0.000;0.000;2022-09-09T01:39:11;2.15;;;0.70;;
48777;SDS011;34578;0.000;0.000;2022-09-09T01:44:13;2.60;;;0.85;;
48777;SDS011;34578;0.000;0.000;2022-09-09T01:49:17;4.38;;;1.10;;
48777;SDS011;34578;0.000;0.000;2022-09-09T01:54:19;1.00;;;0.73;;
48777;SDS011;34578;0.000;0.000;2022-09-09T01:59:24;1.70;;;0.80;;
48777;SDS011;34578;0.000;0.000;2022-09-09T02:09:30;1.73;;;0.60;;
48777;SDS011;34578;0.000;0.000;2022-09-09T02:14:33;2.08;;;0.70;;
48777;SDS011;34578;0.000;0.000;2022-09-09T02:25:03;1.67;;;0.90;;
48777;SDS011;34578;0.000;0.000;2022-09-09T02:30:08;3.00;;;1.08;;
48777;SDS011;34578;0.000;0.000;2022-09-09T02:35:16;1.63;;;0.80;;
48777;SDS011;34578;0.000;0.000;2022-09-09T02:40:20;1.40;;;0.67;;
48777;SDS011;34578;0.000;0.000;2022-09-09T02:45:34;3.05;;;0.85;;
48777;SDS011;34578;0.000;0.000;2022-09-09T02:50:59;1.95;;;0.60;;
48777;SDS011;34578;0.000;0.000;2022-09-09T02:56:25;2.92;;;1.00;;
48777;SDS011;34578;0.000;0.000;2022-09-09T03:01:29;3.47;;;0.70;;
48777;SDS011;34578;0.000;0.000;2022-09-09T03:06:30;3.42;;;0.75;;
48777;SDS011;34578;0.000;0.000;2022-09-09T03:11:39;2.72;;;0.75;;
48777;SDS011;34578;0.000;0.000;2022-09-09T03:16:41;1.70;;;0.77;;
48777;SDS011;34578;0.000;0.000;2022-09-09T03:21:43;3.40;;;0.70;;
48777;SDS011;34578;0.000;0.000;2022-09-09T03:26:47;2.95;;;0.80;;
48777;SDS011;34578;0.000;0.000;2022-09-09T03:31:51;2.05;;;0.50;;
48777;SDS011;34578;0.000;0.000;2022-09-09T03:36:52;2.58;;;0.77;;
48777;SDS011;34578;0.000;0.000;2022-09-09T03:41:52;2.63;;;0.77;;
48777;SDS011;34578;0.000;0.000;2022-09-09T03:46:54;1.60;;;0.75;;
48777;SDS011;34578;0.000;0.000;2022-09-09T03:51:55;3.20;;;0.93;;
48777;SDS011;34578;0.000;0.000;2022-09-09T03:56:57;2.75;;;0.90;;
48777;SDS011;34578;0.000;0.000;2022-09-09T04:01:59;2.47;;;0.65;;
48777;SDS011;34578;0.000;0.000;2022-09-09T04:06:59;2.38;;;0.75;;
48777;SDS011;34578;0.000;0.000;2022-09-09T04:11:59;1.17;;;0.70;;
48777;SDS011;34578;0.000;0.000;2022-09-09T04:17:00;2.08;;;0.68;;
48777;SDS011;34578;0.000;0.000;2022-09-09T04:22:00;3.25;;;0.70;;
48777;SDS011;34578;0.000;0.000;2022-09-09T04:27:01;2.27;;;0.63;;
48777;SDS011;34578;0.000;0.000;2022-09-09T04:32:02;2.30;;;0.68;;
48777;SDS011;34578;0.000;0.000;2022-09-09T04:37:03;1.58;;;0.65;;
48777;SDS011;34578;0.000;0.000;2022-09-09T04:42:03;0.95;;;0.43;;
48777;SDS011;34578;0.000;0.000;2022-09-09T04:47:04;1.67;;;0.60;;
48777;SDS011;34578;0.000;0.000;2022-09-09T04:52:06;2.53;;;0.68;;
48777;SDS011;34578;0.000;0.000;2022-09-09T04:57:09;5.18;;;0.70;;
48777;SDS011;34578;0.000;0.000;2022-09-09T05:02:11;4.18;;;1.00;;
48777;SDS011;34578;0.000;0.000;2022-09-09T05:07:11;2.05;;;0.75;;
48777;SDS011;34578;0.000;0.000;2022-09-09T05:12:13;1.38;;;0.68;;
48777;SDS011;34578;0.000;0.000;2022-09-09T05:17:21;1.75;;;0.65;;
48777;SDS011;34578;0.000;0.000;2022-09-09T05:22:22;8.30;;;1.80;;
48777;SDS011;34578;0.000;0.000;2022-09-09T05:27:24;9.70;;;1.02;;
48777;SDS011;34578;0.000;0.000;2022-09-09T05:32:25;5.38;;;1.27;;
48777;SDS011;34578;0.000;0.000;2022-09-09T05:37:26;7.10;;;1.45;;
48777;SDS011;34578;0.000;0.000;2022-09-09T05:42:30;4.88;;;1.00;;
48777;SDS011;34578;0.000;0.000;2022-09-09T05:47:33;3.07;;;1.50;;
48777;SDS011;34578;0.000;0.000;2022-09-09T05:52:33;4.00;;;0.80;;
48777;SDS011;34578;0.000;0.000;2022-09-09T05:57:34;3.43;;;0.60;;
48777;SDS011;34578;0.000;0.000;2022-09-09T06:02:34;3.17;;;1.00;;
48777;SDS011;34578;0.000;0.000;2022-09-09T06:07:37;8.02;;;0.80;;
48777;SDS011;34578;0.000;0.000;2022-09-09T06:12:38;7.97;;;1.23;;
48777;SDS011;34578;0.000;0.000;2022-09-09T06:17:39;3.90;;;1.27;;
48777;SDS011;34578;0.000;0.000;2022-09-09T06:22:40;2.00;;;0.70;;
48777;SDS011;34578;0.000;0.000;2022-09-09T06:27:41;1.95;;;0.80;;
48777;SDS011;34578;0.000;0.000;2022-09-09T06:32:43;1.92;;;0.50;;
48777;SDS011;34578;0.000;0.000;2022-09-09T06:37:47;3.97;;;0.80;;
48777;SDS011;34578;0.000;0.000;2022-09-09T06:42:48;1.52;;;0.60;;
48777;SDS011;34578;0.000;0.000;2022-09-09T06:48:08;2.53;;;0.70;;
48777;SDS011;34578;0.000;0.000;2022-09-09T06:53:09;2.85;;;0.80;;
48777;SDS011;34578;0.000;0.000;2022-09-09T06:58:09;4.07;;;0.90;;
48777;SDS011;34578;0.000;0.000;2022-09-09T07:03:10;1.88;;;0.50;;
48777;SDS011;34578;0.000;0.000;2022-09-09T07:08:11;1.73;;;0.63;;
48777;SDS011;34578;0.000;0.000;2022-09-09T07:13:11;1.90;;;0.60;;
48777;SDS011;34578;0.000;0.000;2022-09-09T07:18:12;2.47;;;0.70;;
48777;SDS011;34578;0.000;0.000;2022-09-09T07:23:12;1.70;;;0.70;;
48777;SDS011;34578;0.000;0.000;2022-09-09T07:28:13;1.43;;;0.67;;
48777;SDS011;34578;0.000;0.000;2022-09-09T07:33:14;2.30;;;0.60;;
48777;SDS011;34578;0.000;0.000;2022-09-09T07:38:15;1.73;;;0.65;;
48777;SDS011;34578;0.000;0.000;2022-09-09T07:43:16;1.38;;;0.35;;
48777;SDS011;34578;0.000;0.000;2022-09-09T07:48:19;2.65;;;0.57;;
48777;SDS011;34578;0.000;0.000;2022-09-09T07:53:19;2.03;;;0.63;;
48777;SDS011;34578;0.000;0.000;2022-09-09T07:58:20;2.15;;;0.50;;
48777;SDS011;34578;0.000;0.000;2022-09-09T08:03:20;1.70;;;0.60;;
48777;SDS011;34578;0.000;0.000;2022-09-09T08:08:22;0.70;;;0.40;;
48777;SDS011;34578;0.000;0.000;2022-09-09T08:13:22;1.77;;;0.80;;
48777;SDS011;34578;0.000;0.000;2022-09-09T08:18:23;1.00;;;0.50;;
48777;SDS011;34578;0.000;0.000;2022-09-09T08:23:24;2.35;;;0.70;;
48777;SDS011;34578;0.000;0.000;2022-09-09T08:28:26;1.92;;;0.57;;
48777;SDS011;34578;0.000;0.000;2022-09-09T08:33:26;0.95;;;0.30;;
48777;SDS011;34578;0.000;0.000;2022-09-09T08:38:27;5.47;;;0.80;;
48777;SDS011;34578;0.000;0.000;2022-09-09T08:43:28;2.40;;;1.23;;
48777;SDS011;34578;0.000;0.000;2022-09-09T08:54:34;1.48;;;0.60;;
48777;SDS011;34578;0.000;0.000;2022-09-09T08:59:36;0.70;;;0.40;;
48777;SDS011;34578;0.000;0.000;2022-09-09T09:04:54;1.25;;;0.43;;
48777;SDS011;34578;0.000;0.000;2022-09-09T09:15:18;1.87;;;0.57;;
48777;SDS011;34578;0.000;0.000;2022-09-09T09:20:27;4.38;;;0.52;;
48777;SDS011;34578;0.000;0.000;2022-09-09T09:25:47;10.15;;;1.17;;
48777;SDS011;34578;0.000;0.000;2022-09-09T09:30:53;4.53;;;0.95;;
48777;SDS011;34578;0.000;0.000;2022-09-09T09:35:56;1.70;;;0.55;;
48777;SDS011;34578;0.000;0.000;2022-09-09T09:40:58;2.75;;;0.52;;
48777;SDS011;34578;0.000;0.000;2022-09-09T09:46:03;7.80;;;0.80;;
48777;SDS011;34578;0.000;0.000;2022-09-09T09:51:07;4.40;;;0.90;;
48777;SDS011;34578;0.000;0.000;2022-09-09T09:56:12;6.45;;;1.00;;
48777;SDS011;34578;0.000;0.000;2022-09-09T10:06:34;12.13;;;1.35;;
48777;SDS011;34578;0.000;0.000;2022-09-09T10:11:44;12.48;;;1.40;;
48777;SDS011;34578;0.000;0.000;2022-09-09T10:48:20;5.18;;;1.00;;
48777;SDS011;34578;0.000;0.000;2022-09-09T10:53:43;12.15;;;1.30;;
48777;SDS011;34578;0.000;0.000;2022-09-09T10:58:54;4.80;;;0.88;;
48777;SDS011;34578;0.000;0.000;2022-09-09T11:04:15;5.80;;;1.20;;
48777;SDS011;34578;0.000;0.000;2022-09-09T11:09:25;4.38;;;0.90;;
48777;SDS011;34578;0.000;0.000;2022-09-09T11:14:32;3.78;;;0.73;;
48777;SDS011;34578;0.000;0.000;2022-09-09T11:19:40;4.57;;;1.20;;
48777;SDS011;34578;0.000;0.000;2022-09-09T11:40:27;4.53;;;0.70;;
48777;SDS011;34578;0.000;0.000;2022-09-09T11:45:28;8.55;;;1.45;;
48777;SDS011;34578;0.000;0.000;2022-09-09T11:50:30;10.50;;;1.40;;
48777;SDS011;34578;0.000;0.000;2022-09-09T11:55:33;11.75;;;1.92;;
48777;SDS011;34578;0.000;0.000;2022-09-09T12:00:38;4.32;;;0.63;;
48777;SDS011;34578;0.000;0.000;2022-09-09T12:05:42;5.03;;;0.65;;
48777;SDS011;34578;0.000;0.000;2022-09-09T12:10:53;3.05;;;0.50;;
48777;SDS011;34578;0.000;0.000;2022-09-09T12:15:56;2.70;;;0.70;;
48777;SDS011;34578;0.000;0.000;2022-09-09T12:32:06;6.47;;;1.00;;
48777;SDS011;34578;0.000;0.000;2022-09-09T12:37:13;11.25;;;1.55;;
48777;SDS011;34578;0.000;0.000;2022-09-09T12:42:21;19.15;;;1.92;;
48777;SDS011;34578;0.000;0.000;2022-09-09T12:47:42;19.38;;;1.65;;
48777;SDS011;34578;0.000;0.000;2022-09-09T12:52:49;25.58;;;2.70;;
48777;SDS011;34578;0.000;0.000;2022-09-09T12:57:53;22.40;;;2.00;;
48777;SDS011;34578;0.000;0.000;2022-09-09T13:02:54;26.83;;;4.00;;
48777;SDS011;34578;0.000;0.000;2022-09-09T13:08:06;29.05;;;3.85;;
48777;SDS011;34578;0.000;0.000;2022-09-09T13:13:17;32.08;;;3.75;;
48777;SDS011;34578;0.000;0.000;2022-09-09T13:18:22;36.20;;;3.95;;
48777;SDS011;34578;0.000;0.000;2022-09-09T13:23:35;47.30;;;5.90;;
48777;SDS011;34578;0.000;0.000;2022-09-09T13:28:37;26.88;;;4.05;;
48777;SDS011;34578;0.000;0.000;2022-09-09T13:33:37;17.42;;;2.35;;
48777;SDS011;34578;0.000;0.000;2022-09-09T13:38:40;10.73;;;1.55;;
48777;SDS011;34578;0.000;0.000;2022-09-09T13:43:52;9.50;;;2.13;;
48777;SDS011;34578;0.000;0.000;2022-09-09T13:48:55;5.13;;;1.38;;
48777;SDS011;34578;0.000;0.000;2022-09-09T13:53:57;8.00;;;1.27;;
48777;SDS011;34578;0.000;0.000;2022-09-09T13:58:57;7.65;;;1.00;;
48777;SDS011;34578;0.000;0.000;2022-09-09T14:03:58;3.33;;;0.98;;
48777;SDS011;34578;0.000;0.000;2022-09-09T14:08:58;5.18;;;0.93;;
48777;SDS011;34578;0.000;0.000;2022-09-09T14:13:59;7.68;;;1.98;;
48777;SDS011;34578;0.000;0.000;2022-09-09T14:19:00;7.32;;;1.17;;
48777;SDS011;34578;0.000;0.000;2022-09-09T14:24:01;5.80;;;0.93;;
48777;SDS011;34578;0.000;0.000;2022-09-09T14:29:01;5.72;;;1.13;;
48777;SDS011;34578;0.000;0.000;2022-09-09T14:34:02;3.77;;;1.30;;
48777;SDS011;34578;0.000;0.000;2022-09-09T14:39:03;8.80;;;1.77;;
48777;SDS011;34578;0.000;0.000;2022-09-09T14:44:04;6.32;;;1.10;;
48777;SDS011;34578;0.000;0.000;2022-09-09T14:49:04;5.40;;;1.20;;
48777;SDS011;34578;0.000;0.000;2022-09-09T14:54:05;4.13;;;0.77;;
48777;SDS011;34578;0.000;0.000;2022-09-09T14:59:05;4.37;;;1.07;;
48777;SDS011;34578;0.000;0.000;2022-09-09T15:04:05;5.17;;;0.90;;
48777;SDS011;34578;0.000;0.000;2022-09-09T15:09:06;3.15;;;0.80;;
48777;SDS011;34578;0.000;0.000;2022-09-09T15:14:07;5.10;;;0.67;;
48777;SDS011;34578;0.000;0.000;2022-09-09T15:19:09;2.53;;;0.65;;
48777;SDS011;34578;0.000;0.000;2022-09-09T15:24:09;2.80;;;0.60;;
48777;SDS011;34578;0.000;0.000;2022-09-09T15:29:10;3.78;;;0.57;;
48777;SDS011;34578;0.000;0.000;2022-09-09T15:34:10;1.70;;;0.60;;
48777;SDS011;34578;0.000;0.000;2022-09-09T15:39:12;1.05;;;0.63;;
48777;SDS011;34578;0.000;0.000;2022-09-09T15:44:15;2.25;;;0.70;;
48777;SDS011;34578;0.000;0.000;2022-09-09T15:49:17;2.17;;;0.73;;
48777;SDS011;34578;0.000;0.000;2022-09-09T15:54:19;2.72;;;0.68;;
48777;SDS011;34578;0.000;0.000;2022-09-09T15:59:23;2.65;;;0.55;;
48777;SDS011;34578;0.000;0.000;2022-09-09T16:04:25;3.90;;;0.57;;
48777;SDS011;34578;0.000;0.000;2022-09-09T16:09:26;1.90;;;0.80;;
48777;SDS011;34578;0.000;0.000;2022-09-09T16:14:27;1.27;;;0.38;;
48777;SDS011;34578;0.000;0.000;2022-09-09T16:19:28;1.63;;;0.55;;
48777;SDS011;34578;0.000;0.000;2022-09-09T16:24:28;1.70;;;0.47;;
48777;SDS011;34578;0.000;0.000;2022-09-09T16:29:29;0.83;;;0.27;;
48777;SDS011;34578;0.000;0.000;2022-09-09T16:34:29;1.30;;;0.83;;
48777;SDS011;34578;0.000;0.000;2022-09-09T16:39:30;4.63;;;0.98;;
48777;SDS011;34578;0.000;0.000;2022-09-09T16:44:30;1.60;;;0.50;;
48777;SDS011;34578;0.000;0.000;2022-09-09T16:49:30;1.50;;;0.60;;
48777;SDS011;34578;0.000;0.000;2022-09-09T16:54:31;2.03;;;0.40;;
48777;SDS011;34578;0.000;0.000;2022-09-09T16:59:31;1.13;;;0.30;;
48777;SDS011;34578;0.000;0.000;2022-09-09T17:04:32;0.95;;;0.45;;
48777;SDS011;34578;0.000;0.000;2022-09-09T17:09:33;1.23;;;0.52;;
48777;SDS011;34578;0.000;0.000;2022-09-09T17:14:33;0.80;;;0.40;;
48777;SDS011;34578;0.000;0.000;2022-09-09T17:19:34;0.87;;;0.57;;
48777;SDS011;34578;0.000;0.000;2022-09-09T17:24:34;0.88;;;0.40;;
48777;SDS011;34578;0.000;0.000;2022-09-09T17:29:38;3.35;;;0.65;;
48777;SDS011;34578;0.000;0.000;2022-09-09T17:34:39;1.02;;;0.40;;
48777;SDS011;34578;0.000;0.000;2022-09-09T17:39:39;2.17;;;0.33;;
48777;SDS011;34578;0.000;0.000;2022-09-09T17:44:39;0.55;;;0.30;;
48777;SDS011;34578;0.000;0.000;2022-09-09T17:49:41;0.63;;;0.38;;
48777;SDS011;34578;0.000;0.000;2022-09-09T17:54:42;1.00;;;0.30;;
48777;SDS011;34578;0.000;0.000;2022-09-09T17:59:42;0.80;;;0.30;;
48777;SDS011;34578;0.000;0.000;2022-09-09T18:04:43;1.33;;;0.50;;
48777;SDS011;34578;0.000;0.000;2022-09-09T18:09:43;1.57;;;0.40;;
48777;SDS011;34578;0.000;0.000;2022-09-09T18:14:43;0.93;;;0.47;;
48777;SDS011;34578;0.000;0.000;2022-09-09T18:19:44;3.43;;;0.70;;
48777;SDS011;34578;0.000;0.000;2022-09-09T18:24:44;1.43;;;0.97;;
48777;SDS011;34578;0.000;0.000;2022-09-09T18:29:47;1.38;;;0.30;;
48777;SDS011;34578;0.000;0.000;2022-09-09T18:34:47;0.80;;;0.30;;
48777;SDS011;34578;0.000;0.000;2022-09-09T18:39:48;0.88;;;0.30;;
48777;SDS011;34578;0.000;0.000;2022-09-09T18:44:49;6.22;;;1.00;;
48777;SDS011;34578;0.000;0.000;2022-09-09T18:49:49;3.77;;;0.77;;
48777;SDS011;34578;0.000;0.000;2022-09-09T18:54:50;11.02;;;0.80;;
48777;SDS011;34578;0.000;0.000;2022-09-09T18:59:51;32.23;;;2.87;;
48777;SDS011;34578;0.000;0.000;2022-09-09T19:04:53;8.15;;;1.50;;
48777;SDS011;34578;0.000;0.000;2022-09-09T19:09:54;6.83;;;0.90;;
48777;SDS011;34578;0.000;0.000;2022-09-09T19:14:54;1.80;;;0.40;;
48777;SDS011;34578;0.000;0.000;2022-09-09T19:19:54;2.27;;;0.53;;
48777;SDS011;34578;0.000;0.000;2022-09-09T19:24:55;2.27;;;0.50;;
48777;SDS011;34578;0.000;0.000;2022-09-09T19:29:55;4.30;;;0.63;;
48777;SDS011;34578;0.000;0.000;2022-09-09T19:34:56;2.55;;;0.52;;
48777;SDS011;34578;0.000;0.000;2022-09-09T19:39:56;0.30;;;0.20;;
48777;SDS011;34578;0.000;0.000;2022-09-09T19:44:57;10.98;;;1.15;;
48777;SDS011;34578;0.000;0.000;2022-09-09T19:49:57;1.70;;;0.80;;
48777;SDS011;34578;0.000;0.000;2022-09-09T19:54:58;4.90;;;0.90;;
48777;SDS011;34578;0.000;0.000;2022-09-09T19:59:58;1.80;;;0.73;;
48777;SDS011;34578;0.000;0.000;2022-09-09T20:04:59;2.40;;;0.75;;
48777;SDS011;34578;0.000;0.000;2022-09-09T20:10:00;0.40;;;0.23;;
48777;SDS011;34578;0.000;0.000;2022-09-09T20:15:00;2.55;;;0.70;;
48777;SDS011;34578;0.000;0.000;2022-09-09T20:20:01;2.07;;;0.60;;
48777;SDS011;34578;0.000;0.000;2022-09-09T20:25:03;1.20;;;0.50;;
48777;SDS011;34578;0.000;0.000;2022-09-09T20:30:03;1.00;;;0.57;;
48777;SDS011;34578;0.000;0.000;2022-09-09T20:35:04;1.05;;;0.20;;
48777;SDS011;34578;0.000;0.000;2022-09-09T20:40:05;0.80;;;0.40;;
48777;SDS011;34578;0.000;0.000;2022-09-09T20:45:06;4.97;;;1.13;;
48777;SDS011;34578;0.000;0.000;2022-09-09T20:50:07;2.40;;;0.50;;
48777;SDS011;34578;0.000;0.000;2022-09-09T20:55:09;2.80;;;0.40;;
48777;SDS011;34578;0.000;0.000;2022-09-09T21:00:10;0.80;;;0.40;;
48777;SDS011;34578;0.000;0.000;2022-09-09T21:05:10;0.55;;;0.30;;
48777;SDS011;34578;0.000;0.000;2022-09-09T21:10:11;1.77;;;0.43;;
48777;SDS011;34578;0.000;0.000;2022-09-09T21:15:11;0.47;;;0.40;;
48777;SDS011;34578;0.000;0.000;2022-09-09T21:20:11;1.27;;;0.43;;
48777;SDS011;34578;0.000;0.000;2022-09-09T21:25:13;1.55;;;0.40;;
48777;SDS011;34578;0.000;0.000;2022-09-09T21:30:13;0.63;;;0.38;;
48777;SDS011;34578;0.000;0.000;2022-09-09T21:35:14;0.70;;;0.20;;
48777;SDS011;34578;0.000;0.000;2022-09-09T21:40:15;1.27;;;0.50;;
48777;SDS011;34578;0.000;0.000;2022-09-09T21:45:16;0.45;;;0.22;;
48777;SDS011;34578;0.000;0.000;2022-09-09T21:50:18;1.02;;;0.40;;
48777;SDS011;34578;0.000;0.000;2022-09-09T21:55:21;1.17;;;0.30;;
48777;SDS011;34578;0.000;0.000;2022-09-09T22:00:21;3.93;;;1.53;;
48777;SDS011;34578;0.000;0.000;2022-09-09T22:05:23;3.38;;;0.60;;
48777;SDS011;34578;0.000;0.000;2022-09-09T22:10:23;1.90;;;0.30;;
48777;SDS011;34578;0.000;0.000;2022-09-09T22:15:26;1.42;;;0.60;;
48777;SDS011;34578;0.000;0.000;2022-09-09T22:20:29;1.55;;;0.40;;
48777;SDS011;34578;0.000;0.000;2022-09-09T22:25:34;3.83;;;0.40;;
48777;SDS011;34578;0.000;0.000;2022-09-09T22:30:36;3.22;;;1.08;;
48777;SDS011;34578;0.000;0.000;2022-09-09T22:35:38;3.38;;;0.65;;
48777;SDS011;34578;0.000;0.000;2022-09-09T22:40:41;3.58;;;1.10;;
48777;SDS011;34578;0.000;0.000;2022-09-09T22:45:42;2.67;;;0.73;;
48777;SDS011;34578;0.000;0.000;2022-09-09T22:50:43;1.58;;;0.57;;
48777;SDS011;34578;0.000;0.000;2022-09-09T22:55:54;1.92;;;0.73;;
48777;SDS011;34578;0.000;0.000;2022-09-09T23:00:58;2.50;;;0.50;;
48777;SDS011;34578;0.000;0.000;2022-09-09T23:06:00;1.13;;;0.28;;
48777;SDS011;34578;0.000;0.000;2022-09-09T23:11:03;2.10;;;0.65;;
48777;SDS011;34578;0.000;0.000;2022-09-09T23:16:13;3.00;;;0.80;;
48777;SDS011;34578;0.000;0.000;2022-09-09T23:21:15;1.17;;;0.50;;
48777;SDS011;34578;0.000;0.000;2022-09-09T23:26:15;1.13;;;0.37;;
48777;SDS011;34578;0.000;0.000;2022-09-09T23:31:19;1.02;;;0.40;;
48777;SDS011;34578;0.000;0.000;2022-09-09T23:36:22;1.42;;;0.30;;
48777;SDS011;34578;0.000;0.000;2022-09-09T23:41:23;1.40;;;0.30;;
48777;SDS011;34578;0.000;0.000;2022-09-09T23:46:25;0.43;;;0.20;;
48777;SDS011;34578;0.000;0.000;2022-09-09T23:51:27;1.30;;;0.40;;
48777;SDS011;34578;0.000;0.000;2022-09-09T23:56:34;1.27;;;0.30;;
